Time;durP1;ratioP1;P1;durP2;ratioP2;P2;SDS_P1;SDS_P2;PMS_P1;PMS_P2;Temp;Humidity;BMP_temperature;BMP_pressure;BME280_temperature;BME280_humidity;BME280_pressure;Samples;Min_cycle;Max_cycle;Signal;HPM_P1;HPM_P2
2021/09/03 00:00:33;;;;;;;8.10;6.30;;;;;;;10.84;78.52;101171.09;226934;1206;138668;-75
2021/09/03 00:05:44;;;;;;;10.80;6.70;;;;;;;10.90;77.74;101167.15;227819;1202;138786;-74
2021/09/03 00:10:46;;;;;;;8.60;6.20;;;;;;;10.83;78.23;101158.98;227228;1201;138883;-75
2021/09/03 00:15:47;;;;;;;8.20;6.10;;;;;;;10.83;78.37;101156.39;227549;1201;138757;-72
2021/09/03 00:20:49;;;;;;;8.50;7.70;;;;;;;10.88;77.53;101151.67;226986;1201;139592;-77
2021/09/03 00:25:50;;;;;;;8.60;7.80;;;;;;;10.80;77.66;101152.85;227163;1208;138772;-76
2021/09/03 00:30:52;;;;;;;9.00;7.30;;;;;;;10.65;78.75;101149.16;228241;1208;138142;-75
2021/09/03 00:35:53;;;;;;;8.20;6.70;;;;;;;10.59;78.73;101140.71;227746;1202;138809;-74
2021/09/03 00:40:55;;;;;;;7.60;6.60;;;;;;;10.67;78.71;101143.64;227707;1201;138884;-75
2021/09/03 00:45:57;;;;;;;9.20;6.90;;;;;;;10.73;78.66;101143.80;227138;1207;138671;-73
2021/09/03 00:50:59;;;;;;;9.60;6.10;;;;;;;10.60;78.59;101141.29;227341;1201;138688;-74
2021/09/03 00:56:02;;;;;;;6.80;6.10;;;;;;;10.57;78.96;101133.63;227175;1208;139064;-74
2021/09/03 01:01:04;;;;;;;10.90;6.50;;;;;;;10.48;79.22;101139.48;227086;1201;139266;-73
2021/09/03 01:06:06;;;;;;;10.70;6.90;;;;;;;10.41;79.37;101139.02;227910;1201;139334;-74
2021/09/03 01:11:07;;;;;;;9.10;6.00;;;;;;;10.41;79.00;101132.40;228898;1201;139435;-74
2021/09/03 01:16:09;;;;;;;7.40;6.20;;;;;;;10.35;78.89;101134.27;228706;1201;138783;-75
2021/09/03 01:21:10;;;;;;;7.70;6.90;;;;;;;10.28;79.61;101131.92;227863;1202;138460;-74
2021/09/03 01:26:12;;;;;;;8.00;6.10;;;;;;;10.20;79.19;101130.45;227335;1208;138462;-73
2021/09/03 01:31:15;;;;;;;7.00;6.30;;;;;;;10.13;80.02;101128.27;226801;1208;138507;-70
2021/09/03 01:36:17;;;;;;;9.90;7.00;;;;;;;10.10;79.99;101121.31;226966;1209;139323;-74
2021/09/03 01:41:19;;;;;;;7.60;6.20;;;;;;;10.17;79.50;101115.42;226951;1201;139215;-73
2021/09/03 01:46:21;;;;;;;8.90;6.60;;;;;;;10.04;79.06;101099.96;227172;1201;138183;-74
2021/09/03 01:51:22;;;;;;;8.00;6.10;;;;;;;10.03;79.69;101100.23;227338;1201;138665;-74
2021/09/03 01:56:24;;;;;;;8.80;6.50;;;;;;;9.96;79.88;101098.16;227529;1201;138573;-74
2021/09/03 02:01:25;;;;;;;7.80;6.50;;;;;;;9.94;80.02;101095.21;227715;1201;138036;-73
2021/09/03 02:06:27;;;;;;;7.40;6.10;;;;;;;9.89;79.89;101093.13;227387;1208;138731;-75
2021/09/03 02:11:29;;;;;;;7.80;6.70;;;;;;;9.90;80.22;101091.52;226927;1201;138684;-72
2021/09/03 02:16:31;;;;;;;8.50;5.60;;;;;;;9.88;80.38;101082.55;227014;1208;138196;-74
2021/09/03 02:21:33;;;;;;;7.80;5.70;;;;;;;9.89;80.55;101074.70;226888;1208;138163;-74
2021/09/03 02:26:35;;;;;;;6.70;5.40;;;;;;;9.85;79.96;101076.92;227408;1201;138362;-74
2021/09/03 02:31:36;;;;;;;9.30;6.20;;;;;;;9.70;80.11;101076.49;227356;1208;138034;-74
2021/09/03 02:36:38;;;;;;;8.30;6.10;;;;;;;9.56;80.58;101062.55;227033;1208;139035;-74
2021/09/03 02:41:40;;;;;;;7.40;5.50;;;;;;;9.53;81.06;101065.40;227143;1201;139186;-72
2021/09/03 02:46:41;;;;;;;6.00;5.10;;;;;;;9.61;80.63;101061.97;226989;1208;139642;-75
2021/09/03 02:51:43;;;;;;;7.10;5.00;;;;;;;9.61;80.75;101059.11;226914;1207;139630;-74
2021/09/03 02:56:44;;;;;;;6.80;5.30;;;;;;;9.66;80.46;101054.16;226926;1208;138733;-74
2021/09/03 03:01:46;;;;;;;7.70;6.00;;;;;;;9.62;80.19;101055.17;227025;1208;138059;-73
2021/09/03 03:06:48;;;;;;;9.50;6.00;;;;;;;9.58;80.08;101048.98;227521;1208;138972;-76
2021/09/03 03:11:49;;;;;;;6.50;5.50;;;;;;;9.59;79.73;101046.41;228271;1208;138669;-74
2021/09/03 03:16:51;;;;;;;7.60;5.60;;;;;;;9.47;79.88;101037.95;228514;1201;138445;-76
2021/09/03 03:21:54;;;;;;;8.10;5.40;;;;;;;9.49;79.86;101029.88;228102;1201;141710;-74
2021/09/03 03:26:56;;;;;;;6.40;5.40;;;;;;;9.52;79.46;101017.95;229469;1201;138545;-74
2021/09/03 03:31:57;;;;;;;7.80;5.30;;;;;;;9.56;79.66;101014.83;230570;1201;138854;-74
2021/09/03 03:36:59;;;;;;;5.10;4.40;;;;;;;9.55;79.55;101002.10;228279;1201;139017;-74
2021/09/03 03:42:01;;;;;;;6.20;4.80;;;;;;;9.50;79.47;100991.95;227818;1201;138875;-74
2021/09/03 03:47:03;;;;;;;6.20;4.90;;;;;;;9.51;79.52;100978.00;227699;1201;138357;-74
2021/09/03 03:52:05;;;;;;;9.80;4.50;;;;;;;9.43;79.76;100981.64;228105;1202;137941;-74
2021/09/03 03:57:06;;;;;;;9.00;5.00;;;;;;;9.23;80.53;100978.25;227167;1204;138747;-74
2021/09/03 04:02:08;;;;;;;5.60;4.40;;;;;;;9.26;80.73;100981.92;227359;1208;139441;-73
2021/09/03 04:07:10;;;;;;;7.30;4.30;;;;;;;9.33;80.83;100980.43;227417;1208;138445;-74
2021/09/03 04:12:11;;;;;;;7.60;4.60;;;;;;;9.35;80.98;100979.51;227670;1201;138037;-76
2021/09/03 04:17:14;;;;;;;6.80;4.30;;;;;;;9.30;81.33;100969.38;227220;1208;138255;-74
2021/09/03 04:22:15;;;;;;;4.40;3.70;;;;;;;9.23;81.45;100965.09;227563;1208;138120;-74
2021/09/03 04:27:17;;;;;;;7.40;4.30;;;;;;;9.30;81.56;100955.48;227615;1208;138551;-74
2021/09/03 04:32:18;;;;;;;6.10;3.80;;;;;;;9.39;81.03;100948.77;227754;1201;139295;-73
2021/09/03 04:37:20;;;;;;;5.60;4.40;;;;;;;9.38;81.50;100943.75;227982;1201;139291;-74
2021/09/03 04:42:22;;;;;;;5.20;4.30;;;;;;;9.36;81.52;100935.27;227844;1201;139458;-73
2021/09/03 04:47:24;;;;;;;5.10;3.80;;;;;;;9.36;82.01;100936.18;227579;1201;138007;-75
2021/09/03 04:52:26;;;;;;;4.90;3.60;;;;;;;9.36;82.10;100939.86;227443;1202;138411;-74
2021/09/03 04:57:28;;;;;;;4.90;4.10;;;;;;;9.36;82.38;100937.55;227800;1201;139043;-73
2021/09/03 05:02:29;;;;;;;6.70;3.80;;;;;;;9.49;81.80;100945.58;227972;1201;139132;-75
2021/09/03 05:07:31;;;;;;;6.00;3.90;;;;;;;9.63;80.94;100943.25;227439;1201;139537;-74
2021/09/03 05:12:34;;;;;;;6.30;3.80;;;;;;;9.68;80.60;100938.01;227809;1201;138267;-75
2021/09/03 05:17:36;;;;;;;5.80;3.40;;;;;;;9.75;80.47;100932.06;228030;1201;138328;-74
2021/09/03 05:22:38;;;;;;;6.30;3.90;;;;;;;9.85;80.25;100934.73;229088;1201;138299;-74
2021/09/03 05:27:42;;;;;;;4.50;3.40;;;;;;;9.97;80.55;100938.73;228380;1208;139566;-74
2021/09/03 05:32:44;;;;;;;4.90;3.10;;;;;;;10.19;80.60;100941.62;227079;1208;140127;-73
2021/09/03 05:37:46;;;;;;;4.00;2.90;;;;;;;10.37;80.26;100942.95;227063;1209;138699;-73
2021/09/03 05:42:48;;;;;;;5.90;3.50;;;;;;;10.50;80.42;100933.91;226942;1204;138406;-74
2021/09/03 05:47:50;;;;;;;4.90;4.40;;;;;;;10.56;81.04;100922.94;227958;1201;138011;-75
2021/09/03 05:52:51;;;;;;;5.70;3.60;;;;;;;10.69;80.87;100915.45;227862;1201;138327;-74
2021/09/03 05:57:54;;;;;;;4.90;4.00;;;;;;;10.86;80.59;100915.45;227008;1201;141619;-73
2021/09/03 06:02:57;;;;;;;4.90;3.20;;;;;;;11.06;79.70;100908.41;226868;1208;138968;-73
2021/09/03 06:07:59;;;;;;;6.50;4.10;;;;;;;11.23;78.98;100905.44;226799;1200;138762;-75
2021/09/03 06:13:01;;;;;;;4.80;4.00;;;;;;;11.39;78.39;100902.84;226942;1202;138426;-75
2021/09/03 06:18:03;;;;;;;4.90;3.70;;;;;;;11.52;78.43;100903.73;227167;1202;139254;-73
2021/09/03 06:23:04;;;;;;;4.70;3.90;;;;;;;11.68;77.80;100892.51;226917;1202;138546;-74
2021/09/03 06:28:06;;;;;;;3.90;2.50;;;;;;;11.88;78.04;100897.33;227054;1208;139196;-75
2021/09/03 06:33:07;;;;;;;4.70;3.00;;;;;;;12.10;76.34;100895.38;228038;1201;139075;-75
2021/09/03 06:38:09;;;;;;;6.30;3.10;;;;;;;12.32;75.33;100883.15;227510;1208;138353;-73
2021/09/03 06:43:11;;;;;;;7.70;2.50;;;;;;;12.40;74.90;100878.92;227122;1208;138636;-74
2021/09/03 06:48:13;;;;;;;4.20;2.40;;;;;;;12.55;73.51;100878.67;227296;1200;138709;-73
2021/09/03 06:53:15;;;;;;;3.70;2.60;;;;;;;12.77;72.21;100877.15;228020;1201;138559;-75
2021/09/03 06:58:16;;;;;;;2.70;1.70;;;;;;;12.95;71.77;100869.94;227086;1208;138064;-74
2021/09/03 07:03:18;;;;;;;2.60;1.90;;;;;;;13.07;70.86;100864.17;227256;1201;138757;-74
2021/09/03 07:08:20;;;;;;;2.10;1.70;;;;;;;13.22;70.30;100860.69;227943;1201;138871;-75
2021/09/03 07:13:22;;;;;;;2.70;1.80;;;;;;;13.44;69.50;100859.89;226995;1201;138500;-75
2021/09/03 07:18:23;;;;;;;3.80;1.50;;;;;;;13.58;69.09;100862.85;226942;1208;139141;-72
2021/09/03 07:23:25;;;;;;;5.10;2.60;;;;;;;13.67;68.47;100856.22;227814;1201;138587;-73
2021/09/03 07:28:27;;;;;;;2.40;1.80;;;;;;;13.75;67.37;100855.70;226969;1208;138679;-73
2021/09/03 07:33:29;;;;;;;3.10;2.00;;;;;;;14.03;66.22;100855.70;227126;1208;138799;-74
2021/09/03 07:38:31;;;;;;;3.90;3.00;;;;;;;14.17;65.13;100847.30;227425;1201;138905;-74
2021/09/03 07:43:32;;;;;;;2.90;1.70;;;;;;;14.31;64.98;100836.75;227552;1198;138708;-73
2021/09/03 07:48:34;;;;;;;2.90;1.50;;;;;;;14.44;63.28;100835.64;228027;1201;138556;-72
2021/09/03 07:53:36;;;;;;;2.00;1.40;;;;;;;14.65;62.64;100830.99;226964;1204;138226;-74
2021/09/03 07:58:38;;;;;;;2.00;1.00;;;;;;;14.77;62.02;100815.64;227842;1201;139132;-74
2021/09/03 08:03:40;;;;;;;2.30;1.40;;;;;;;14.88;62.86;100808.36;227924;1200;138719;-74
2021/09/03 08:08:41;;;;;;;1.70;1.50;;;;;;;15.01;62.66;100799.16;227651;1201;141561;-75
2021/09/03 08:13:43;;;;;;;6.80;2.70;;;;;;;15.09;62.62;100795.04;227899;1201;138627;-74
2021/09/03 08:18:44;;;;;;;2.30;1.40;;;;;;;15.29;62.30;100794.57;227821;1201;139101;-77
2021/09/03 08:23:46;;;;;;;2.90;1.30;;;;;;;15.48;61.61;100795.23;227972;1207;138878;-74
2021/09/03 08:28:48;;;;;;;3.10;1.20;;;;;;;15.68;59.67;100799.36;228028;1201;139398;-75
2021/09/03 08:33:50;;;;;;;2.90;0.90;;;;;;;15.82;58.78;100785.05;228026;1208;138951;-75
2021/09/03 08:38:51;;;;;;;2.30;0.80;;;;;;;15.98;59.83;100777.44;227475;1201;138270;-75
2021/09/03 08:43:59;;;;;;;2.00;0.70;;;;;;;16.12;59.07;100771.45;227901;1208;138481;-75
2021/09/03 08:49:02;;;;;;;1.20;0.70;;;;;;;16.21;58.37;100766.30;228139;1201;138844;-74
2021/09/03 08:54:04;;;;;;;1.00;0.80;;;;;;;16.42;57.04;100756.13;228078;1207;138533;-76
2021/09/03 08:59:06;;;;;;;0.90;0.60;;;;;;;16.61;57.40;100748.80;228038;1202;138236;-75
2021/09/03 09:04:17;;;;;;;1.10;0.60;;;;;;;16.77;55.32;100741.95;228228;1202;138537;-75
2021/09/03 09:09:29;;;;;;;1.80;0.70;;;;;;;16.84;54.49;100729.73;228034;1208;138378;-74
2021/09/03 09:15:00;;;;;;;0.80;0.80;;;;;;;16.89;54.68;100733.59;228050;1207;139934;-75
2021/09/03 09:20:24;;;;;;;3.20;1.30;;;;;;;17.11;53.68;100730.51;227616;1202;139151;-76
2021/09/03 09:25:29;;;;;;;1.20;0.80;;;;;;;17.15;53.97;100718.34;227735;1200;138644;-73
2021/09/03 09:30:31;;;;;;;;;;;;;;;17.18;55.48;100712.85;228116;1202;138115;-76
2021/09/03 09:35:45;;;;;;;1.40;0.80;;;;;;;17.30;53.95;100711.38;228162;1201;124819;-75
2021/09/03 09:40:58;;;;;;;3.70;1.00;;;;;;;17.37;54.62;100710.13;227862;1201;138520;-75
2021/09/03 09:46:22;;;;;;;3.40;1.00;;;;;;;17.54;53.21;100703.40;227867;1201;138061;-75
2021/09/03 09:51:28;;;;;;;1.70;1.60;;;;;;;17.73;53.40;100685.66;227886;1202;139309;-75
2021/09/03 09:56:34;;;;;;;1.30;1.20;;;;;;;17.90;54.40;100683.02;227300;1208;139286;-75
2021/09/03 10:01:38;;;;;;;1.50;1.40;;;;;;;17.98;53.90;100680.23;227122;1208;139709;-75
2021/09/03 10:06:43;;;;;;;2.00;1.70;;;;;;;17.93;52.67;100678.80;227318;1201;138719;-75
2021/09/03 10:11:48;;;;;;;2.70;1.90;;;;;;;18.13;52.11;100672.15;227972;1201;138186;-74
2021/09/03 10:16:51;;;;;;;3.40;2.50;;;;;;;18.20;53.03;100663.59;227998;1202;138139;-76
2021/09/03 10:22:21;;;;;;;1.90;1.60;;;;;;;18.22;53.68;100658.83;227737;1208;138245;-76
2021/09/03 10:27:23;;;;;;;2.50;2.20;;;;;;;18.39;53.99;100657.77;229662;1201;138298;-73
2021/09/03 10:32:25;;;;;;;3.00;2.40;;;;;;;18.49;54.21;100646.30;230003;1201;138602;-75
2021/09/03 10:37:32;;;;;;;3.60;2.30;;;;;;;18.63;53.78;100641.27;228731;1202;138188;-73
2021/09/03 10:42:37;;;;;;;2.60;2.40;;;;;;;18.88;54.09;100631.58;227979;1202;138707;-74
2021/09/03 10:47:38;;;;;;;4.20;2.80;;;;;;;18.93;53.79;100625.61;227982;1202;138924;-74
2021/09/03 10:53:06;;;;;;;3.70;3.30;;;;;;;19.03;53.35;100625.34;227886;1201;138575;-75
2021/09/03 10:58:08;;;;;;;3.80;2.60;;;;;;;19.23;53.07;100605.15;227948;1202;138546;-75
2021/09/03 11:03:36;;;;;;;3.00;2.70;;;;;;;19.46;53.43;100600.42;227453;1208;139896;-73
2021/09/03 11:08:39;;;;;;;4.50;3.10;;;;;;;19.66;52.23;100597.63;228011;1202;138711;-76
2021/09/03 11:13:48;;;;;;;3.50;2.40;;;;;;;19.93;51.61;100589.52;227963;1202;138487;-75
2021/09/03 11:19:24;;;;;;;3.60;2.60;;;;;;;20.24;51.77;100581.91;227715;1206;138248;-76
2021/09/03 11:24:43;;;;;;;3.60;2.70;;;;;;;20.45;50.91;100577.92;227958;1208;138689;-76
2021/09/03 11:29:56;;;;;;;2.60;2.30;;;;;;;20.67;49.79;100575.60;227972;1201;138581;-74
2021/09/03 11:35:10;;;;;;;2.60;2.40;;;;;;;20.55;49.64;100566.73;227990;1201;138018;-75
2021/09/03 11:40:23;;;;;;;3.10;2.80;;;;;;;20.48;50.30;100564.02;227989;1206;138295;-74
2021/09/03 11:45:29;;;;;;;3.80;2.80;;;;;;;20.44;50.66;100557.94;227969;1206;138499;-73
2021/09/03 11:50:38;;;;;;;3.20;2.90;;;;;;;20.38;49.91;100547.95;228524;1207;139295;-74
2021/09/03 11:55:41;;;;;;;3.10;2.50;;;;;;;20.51;50.33;100538.66;227874;1201;138229;-76
2021/09/03 12:00:51;;;;;;;4.50;2.80;;;;;;;20.91;49.09;100538.94;227996;1208;139259;-74
2021/09/03 12:05:55;;;;;;;3.90;2.30;;;;;;;21.53;47.40;100535.35;227992;1206;139468;-76
2021/09/03 12:10:58;;;;;;;4.00;2.60;;;;;;;21.49;47.07;100527.56;228184;1202;138431;-76
2021/09/03 12:16:06;;;;;;;2.80;2.60;;;;;;;21.25;47.35;100520.15;227919;1208;138609;-75
2021/09/03 12:21:10;;;;;;;2.80;2.40;;;;;;;21.35;47.52;100513.45;227981;1201;138532;-74
2021/09/03 12:26:22;;;;;;;2.70;2.00;;;;;;;21.44;46.75;100501.42;227970;1208;138640;-76
2021/09/03 12:31:28;;;;;;;4.40;2.40;;;;;;;21.37;46.67;100499.96;227931;1208;138743;-74
2021/09/03 12:36:32;;;;;;;3.10;2.70;;;;;;;21.24;46.57;100497.36;227423;1208;138403;-72
2021/09/03 12:41:39;;;;;;;3.80;1.80;;;;;;;21.28;47.58;100490.55;228012;1200;225363;-76
2021/09/03 12:46:44;;;;;;;3.70;2.70;;;;;;;21.24;47.63;100487.10;227970;1208;139575;-75
2021/09/03 12:51:50;;;;;;;2.00;1.80;;;;;;;21.16;48.71;100484.88;228049;1207;138339;-74
2021/09/03 12:56:52;;;;;;;2.60;2.40;;;;;;;21.06;48.34;100483.79;228093;1201;138413;-76
2021/09/03 13:01:54;;;;;;;2.90;2.60;;;;;;;20.98;49.08;100480.27;227927;1202;138781;-74
2021/09/03 13:06:57;;;;;;;5.80;3.00;;;;;;;20.97;49.33;100467.13;227997;1202;138440;-74
2021/09/03 13:11:59;;;;;;;4.30;3.10;;;;;;;21.25;48.83;100464.81;227965;1202;139188;-74
2021/09/03 13:17:01;;;;;;;4.80;3.20;;;;;;;21.55;48.68;100457.00;227937;1202;138824;-76
2021/09/03 13:22:03;;;;;;;6.50;4.10;;;;;;;21.85;48.16;100457.40;228004;1201;138635;-79
2021/09/03 13:27:05;;;;;;;6.60;4.40;;;;;;;21.56;49.42;100454.02;227967;1202;138656;-75
2021/09/03 13:32:07;;;;;;;5.20;4.00;;;;;;;21.40;49.91;100451.98;227990;1202;138707;-74
2021/09/03 13:37:09;;;;;;;6.30;4.50;;;;;;;21.36;50.55;100451.73;228544;1206;138986;-75
2021/09/03 13:42:10;;;;;;;5.80;4.70;;;;;;;21.27;50.54;100451.17;228048;1206;139305;-76
2021/09/03 13:47:14;;;;;;;5.60;4.90;;;;;;;21.10;50.87;100450.96;227396;1208;138562;-74
2021/09/03 13:52:15;;;;;;;5.90;4.50;;;;;;;21.01;51.20;100442.16;227040;1202;138287;-76
2021/09/03 13:57:17;;;;;;;5.00;4.50;;;;;;;21.02;51.37;100446.46;228042;1202;138654;-72
2021/09/03 14:02:19;;;;;;;6.80;4.90;;;;;;;20.84;52.87;100445.98;227543;1208;138124;-75
2021/09/03 14:07:23;;;;;;;6.80;5.60;;;;;;;20.53;53.63;100449.17;227799;1201;138530;-75
2021/09/03 14:12:25;;;;;;;7.00;5.20;;;;;;;20.80;52.37;100457.20;227679;1201;138339;-73
2021/09/03 14:17:26;;;;;;;5.70;5.00;;;;;;;20.89;52.82;100454.66;228058;1202;138610;-74
2021/09/03 14:22:30;;;;;;;6.30;5.40;;;;;;;20.84;53.24;100451.69;227979;1208;138225;-74
2021/09/03 14:27:31;;;;;;;9.20;6.80;;;;;;;20.62;54.18;100453.29;227400;1201;138521;-73
2021/09/03 14:32:33;;;;;;;9.60;6.30;;;;;;;20.54;53.53;100450.91;227837;1202;138165;-74
2021/09/03 14:37:35;;;;;;;8.00;6.50;;;;;;;20.44;52.50;100455.48;227425;1202;138617;-74
2021/09/03 14:42:37;;;;;;;10.90;6.70;;;;;;;20.35;54.06;100453.19;227816;1205;138655;-73
2021/09/03 14:47:39;;;;;;;10.30;6.60;;;;;;;20.32;54.84;100455.07;228004;1205;139407;-72
2021/09/03 14:52:41;;;;;;;10.60;6.70;;;;;;;20.30;54.98;100455.13;227540;1202;138545;-75
2021/09/03 14:57:43;;;;;;;7.90;7.10;;;;;;;20.15;54.01;100462.01;227788;1202;138950;-75
2021/09/03 15:02:45;;;;;;;7.20;6.50;;;;;;;20.04;54.26;100451.79;227909;1201;138857;-73
2021/09/03 15:07:47;;;;;;;8.20;7.40;;;;;;;20.11;55.06;100452.58;229202;1201;138508;-76
2021/09/03 15:12:50;;;;;;;7.70;5.90;;;;;;;19.88;55.07;100452.48;229046;1201;140956;-75
2021/09/03 15:17:52;;;;;;;10.30;7.90;;;;;;;19.70;55.82;100461.86;227916;1201;138591;-79
2021/09/03 15:22:53;;;;;;;7.70;6.80;;;;;;;19.54;56.92;100453.91;227960;1201;138646;-76
2021/09/03 15:27:56;;;;;;;9.40;6.90;;;;;;;19.44;57.33;100450.56;227911;1202;138265;-75
2021/09/03 15:32:58;;;;;;;8.30;6.90;;;;;;;19.49;57.59;100452.08;227976;1206;138449;-77
2021/09/03 15:38:11;;;;;;;7.20;6.50;;;;;;;19.49;57.78;100452.45;227885;1201;138154;-75
2021/09/03 15:43:13;;;;;;;8.80;7.90;;;;;;;19.32;58.16;100452.77;228082;1201;138576;-75
2021/09/03 15:48:16;;;;;;;9.20;7.20;;;;;;;19.31;58.33;100446.42;227403;1201;138241;-74
2021/09/03 15:53:18;;;;;;;10.60;6.60;;;;;;;19.26;58.79;100444.61;227918;1206;138704;-75
2021/09/03 15:58:20;;;;;;;8.60;7.30;;;;;;;19.21;59.32;100444.61;227941;1208;138564;-75
2021/09/03 16:03:21;;;;;;;9.40;7.90;;;;;;;19.19;59.50;100444.88;228006;1201;138217;-76
2021/09/03 16:08:23;;;;;;;7.50;6.70;;;;;;;19.14;59.44;100445.08;228056;1201;138161;-75
2021/09/03 16:13:25;;;;;;;10.30;6.90;;;;;;;19.06;59.36;100445.95;228655;1202;138442;-73
2021/09/03 16:18:27;;;;;;;9.20;7.40;;;;;;;18.97;59.11;100444.73;228610;1201;138712;-78
2021/09/03 16:23:29;;;;;;;9.60;7.50;;;;;;;18.90;59.36;100445.38;228028;1201;139098;-75
2021/09/03 16:28:31;;;;;;;12.90;6.90;;;;;;;18.81;59.74;100441.02;228122;1201;139823;-77
2021/09/03 16:33:33;;;;;;;9.80;7.90;;;;;;;18.75;60.28;100440.03;227861;1201;138729;-76
2021/09/03 16:38:35;;;;;;;9.70;6.90;;;;;;;18.72;60.68;100442.58;227908;1202;139148;-77
2021/09/03 16:43:36;;;;;;;11.80;9.30;;;;;;;18.72;60.86;100445.34;227696;1204;155598;-73
2021/09/03 16:48:38;;;;;;;9.80;7.50;;;;;;;18.71;61.39;100445.66;227462;1208;138742;-75
2021/09/03 16:53:39;;;;;;;7.30;6.60;;;;;;;18.66;61.57;100441.23;227894;1201;138872;-74
2021/09/03 16:58:41;;;;;;;7.20;6.50;;;;;;;18.60;61.68;100437.59;227951;1200;138648;-74
2021/09/03 17:03:43;;;;;;;8.20;7.40;;;;;;;18.56;62.33;100438.33;227952;1202;139363;-76
2021/09/03 17:08:44;;;;;;;8.10;6.70;;;;;;;18.42;62.78;100435.22;227919;1201;138316;-74
2021/09/03 17:13:48;;;;;;;9.10;7.00;;;;;;;18.29;63.25;100431.32;227767;1201;138576;-76
2021/09/03 17:18:50;;;;;;;9.60;7.70;;;;;;;18.22;63.86;100424.47;227955;1203;138470;-75
2021/09/03 17:23:52;;;;;;;10.20;8.00;;;;;;;18.12;64.46;100427.95;227802;1201;138798;-78
2021/09/03 17:28:55;;;;;;;8.30;7.50;;;;;;;18.06;64.91;100429.45;227874;1201;139164;-76
2021/09/03 17:33:57;;;;;;;8.30;7.60;;;;;;;17.98;65.29;100436.70;227923;1201;138629;-76
2021/09/03 17:38:59;;;;;;;8.40;7.50;;;;;;;17.89;65.69;100440.02;228029;1201;138225;-77
2021/09/03 17:44:01;;;;;;;10.50;8.00;;;;;;;17.85;65.38;100445.92;228320;1200;138333;-77
2021/09/03 17:49:03;;;;;;;9.20;7.70;;;;;;;17.81;65.16;100455.11;228199;1200;138564;-79
2021/09/03 17:54:05;;;;;;;9.50;8.50;;;;;;;17.82;65.11;100468.39;227766;1201;138581;-73
2021/09/03 17:59:08;;;;;;;14.50;9.90;;;;;;;17.92;65.15;100476.09;227794;1201;138667;-76
2021/09/03 18:04:09;;;;;;;10.10;8.40;;;;;;;17.86;65.67;100481.05;227687;1201;138614;-75
2021/09/03 18:09:11;;;;;;;9.60;8.40;;;;;;;17.79;65.72;100484.96;227624;1206;138331;-73
2021/09/03 18:14:13;;;;;;;10.00;9.00;;;;;;;17.81;65.48;100483.37;226961;1208;139467;-75
2021/09/03 18:19:14;;;;;;;9.70;8.70;;;;;;;17.81;65.00;100494.84;227822;1200;139092;-75
2021/09/03 18:24:17;;;;;;;9.70;8.30;;;;;;;17.80;64.05;100498.86;227380;1208;138925;-76
2021/09/03 18:29:19;;;;;;;9.60;8.10;;;;;;;17.72;64.09;100503.13;227369;1201;138482;-75
2021/09/03 18:34:20;;;;;;;8.40;7.40;;;;;;;17.70;64.14;100505.41;227211;1208;138858;-74
2021/09/03 18:39:22;;;;;;;10.80;8.70;;;;;;;17.66;64.06;100499.16;227095;1208;138487;-75
2021/09/03 18:44:24;;;;;;;9.90;8.10;;;;;;;17.59;64.00;100504.22;227260;1201;138780;-74
2021/09/03 18:49:25;;;;;;;8.30;7.50;;;;;;;17.50;64.27;100503.39;226908;1209;138491;-73
2021/09/03 18:54:27;;;;;;;9.80;7.40;;;;;;;17.40;64.49;100506.60;227026;1205;139246;-74
2021/09/03 18:59:29;;;;;;;10.30;7.20;;;;;;;17.28;64.95;100503.04;226884;1206;138338;-78
2021/09/03 19:04:31;;;;;;;9.80;8.80;;;;;;;17.21;65.40;100503.80;227901;1200;138567;-75
2021/09/03 19:09:33;;;;;;;10.10;8.40;;;;;;;17.17;65.80;100507.17;227208;1208;138371;-76
2021/09/03 19:14:35;;;;;;;11.30;8.90;;;;;;;17.23;65.66;100507.47;227614;1201;139245;-76
2021/09/03 19:19:37;;;;;;;11.00;8.40;;;;;;;17.28;64.96;100503.40;227026;1208;139336;-77
2021/09/03 19:24:39;;;;;;;9.80;8.70;;;;;;;17.32;64.67;100507.58;227752;1201;138454;-74
2021/09/03 19:29:40;;;;;;;10.10;8.50;;;;;;;17.29;64.92;100514.17;226905;1201;139348;-73
2021/09/03 19:34:45;;;;;;;9.70;8.50;;;;;;;17.20;65.22;100517.39;227936;1201;138607;-74
2021/09/03 19:39:47;;;;;;;10.40;9.00;;;;;;;17.13;65.45;100522.23;227554;1201;138374;-74
2021/09/03 19:44:49;;;;;;;9.40;8.10;;;;;;;17.08;65.43;100525.66;227736;1201;138848;-73
2021/09/03 19:49:50;;;;;;;12.20;8.20;;;;;;;17.02;65.80;100527.42;226972;1201;138219;-76
2021/09/03 19:54:52;;;;;;;9.70;7.80;;;;;;;16.97;65.63;100531.36;227207;1208;138864;-76
2021/09/03 19:59:54;;;;;;;14.80;9.30;;;;;;;16.94;65.91;100531.81;227728;1201;138673;-76
2021/09/03 20:04:55;;;;;;;11.90;9.40;;;;;;;16.87;65.75;100536.09;227687;1201;138966;-78
2021/09/03 20:09:57;;;;;;;10.20;8.40;;;;;;;16.88;65.72;100531.61;227420;1201;138808;-76
2021/09/03 20:14:59;;;;;;;10.60;9.20;;;;;;;16.94;65.68;100539.42;226907;1208;139368;-74
2021/09/03 20:20:00;;;;;;;11.60;8.20;;;;;;;16.98;65.57;100546.52;227557;1200;139543;-74
2021/09/03 20:25:03;;;;;;;10.30;9.20;;;;;;;16.91;65.83;100548.64;227265;1201;139599;-73
2021/09/03 20:30:06;;;;;;;10.40;8.40;;;;;;;16.88;66.22;100552.95;226616;1201;138271;-73
2021/09/03 20:35:08;;;;;;;10.60;8.90;;;;;;;16.82;66.37;100553.68;226838;1201;138452;-77
2021/09/03 20:40:10;;;;;;;9.00;8.00;;;;;;;16.75;66.47;100559.02;226702;1209;138794;-75
2021/09/03 20:45:12;;;;;;;11.90;9.30;;;;;;;16.61;66.79;100560.49;227065;1202;138604;-74
2021/09/03 20:50:14;;;;;;;10.80;8.50;;;;;;;16.67;67.09;100557.80;230555;1201;139869;-74
2021/09/03 20:55:16;;;;;;;11.30;8.70;;;;;;;16.72;66.99;100560.21;228727;1200;139288;-75
2021/09/03 21:00:18;;;;;;;11.00;9.00;;;;;;;16.70;67.39;100560.17;226574;1209;138827;-75
2021/09/03 21:05:20;;;;;;;12.30;9.00;;;;;;;16.64;67.32;100563.56;228244;1202;139415;-72
2021/09/03 21:10:22;;;;;;;9.50;8.40;;;;;;;16.58;67.95;100568.02;229613;1200;138506;-74
2021/09/03 21:15:23;;;;;;;11.10;9.00;;;;;;;16.51;68.69;100568.91;226997;1208;138858;-74
2021/09/03 21:20:25;;;;;;;10.00;8.60;;;;;;;16.39;69.14;100572.56;227141;1209;138218;-74
2021/09/03 21:25:27;;;;;;;10.40;9.20;;;;;;;16.32;69.29;100574.76;226446;1207;141833;-74
2021/09/03 21:30:28;;;;;;;12.20;9.40;;;;;;;16.34;69.29;100587.09;226346;1203;142788;-74
2021/09/03 21:35:30;;;;;;;10.80;9.00;;;;;;;16.39;69.16;100587.33;226385;1209;140433;-74
2021/09/03 21:40:32;;;;;;;13.80;10.20;;;;;;;16.39;69.54;100589.34;226523;1209;139403;-74
2021/09/03 21:45:34;;;;;;;13.50;9.50;;;;;;;16.32;69.76;100594.52;226169;1201;139617;-74
2021/09/03 21:50:35;;;;;;;11.20;9.60;;;;;;;16.28;69.89;100592.52;226506;1208;138858;-73
2021/09/03 21:55:37;;;;;;;10.50;9.00;;;;;;;16.12;70.68;100595.80;227213;1202;140855;-74
2021/09/03 22:00:39;;;;;;;10.10;8.00;;;;;;;16.11;70.54;100597.05;226389;1208;138571;-75
2021/09/03 22:05:42;;;;;;;11.20;9.10;;;;;;;16.04;70.89;100597.37;228357;1201;138731;-73
2021/09/03 22:10:44;;;;;;;14.00;10.80;;;;;;;16.01;70.60;100599.98;228226;1201;139790;-72
2021/09/03 22:15:45;;;;;;;10.30;9.00;;;;;;;15.90;71.14;100606.06;227569;1201;139725;-73
2021/09/03 22:20:47;;;;;;;10.80;8.90;;;;;;;15.88;71.43;100609.01;227746;1200;138922;-74
2021/09/03 22:25:48;;;;;;;11.80;9.80;;;;;;;15.71;71.77;100610.89;226746;1208;139418;-73
2021/09/03 22:30:50;;;;;;;12.10;9.80;;;;;;;15.59;72.54;100614.05;226688;1201;139125;-71
2021/09/03 22:35:52;;;;;;;10.80;9.70;;;;;;;15.43;73.12;100621.39;226669;1208;138574;-74
2021/09/03 22:40:54;;;;;;;11.60;9.50;;;;;;;15.32;73.51;100621.80;227029;1201;138735;-73
2021/09/03 22:45:55;;;;;;;12.50;9.10;;;;;;;15.28;73.53;100621.70;226922;1201;139063;-74
2021/09/03 22:50:57;;;;;;;11.50;9.10;;;;;;;15.27;73.38;100622.02;226898;1208;138660;-74
2021/09/03 22:55:59;;;;;;;10.90;9.50;;;;;;;15.18;73.64;100628.07;226864;1208;138886;-74